Flight Track Log - Related Links

Times and Time Zones

All times are in EDT time to prevent confusion due to time zone crossing. See the DLH417 flight status page for this flight to view local times or setup timezone preferences in your user account.

Time Position Orientation Groundspeed Altitude Reporting Facility
EDT Latitude Longitude Course Direction KTS MPH feet Rate Location/Type
Tue 03:45:34 PM 38.9333 -77.4667 288° West 162 186 1,700  Level Potomac TRACON
Tue 03:46:34 PM 38.9500 -77.5333 343° North 251 289 2,500 2,083 Climbing Potomac TRACON
Tue 03:47:35 PM 39.0333 -77.5667 30° Northeast 290 334 5,900 2,826 Climbing Potomac TRACON
Tue 03:48:35 PM 39.1000 -77.5167 55° Northeast 290 334 8,200 1,409 Climbing Potomac TRACON
Tue 03:49:47 PM 39.1430 -77.4380 58° Northeast 303 349 9,000 466 Climbing FlightAware ADS-B
Tue 03:50:18 PM 39.1730 -77.3750 58° Northeast 302 348 9,000  Level FlightAware ADS-B
Tue 03:50:46 PM 39.1930 -77.3340 57° Northeast 300 345 9,000  Level FlightAware ADS-B
Tue 03:51:16 PM 39.2190 -77.2820 240° Southwest 303 349 9,000  Level FlightAware ADS-B
Tue 03:51:18 PM 39.2142 -77.2928 58° Northeast 322 371 9,000 1,829 Level Washington Center
Tue 03:53:01 PM 39.2970 -77.1220 72° East 368 423 12,200 1,964 Climbing FlightAware ADS-B
Tue 03:54:03 PM 39.3320 -76.9800 99° East 385 443 14,400 2,050 Climbing FlightAware ADS-B
Tue 03:55:01 PM 39.3170 -76.8560 98° East 393 452 16,300 1,870 Climbing FlightAware ADS-B
Tue 03:55:20 PM 39.3136 -76.8256 100° East 361 415 16,800 2,506 Climbing Washington Center
Tue 03:56:20 PM 39.2905 -76.6504 99° East 409 471 19,600 2,637 Climbing FlightAware ADS-B
Tue 03:56:51 PM 39.2812 -76.5754 99° East 415 478 20,800 2,182 Climbing FlightAware ADS-B
Tue 03:57:26 PM 39.2707 -76.4909 99° East 422 486 22,000 1,727 Climbing FlightAware ADS-B
Tue 03:57:57 PM 39.2607 -76.4139 99° East 427 491 22,700 968 Climbing FlightAware ADS-B
Tue 03:58:28 PM 39.2506 -76.3341 99° East 428 493 23,000 286 Climbing FlightAware ADS-B
Tue 03:59:00 PM 39.2403 -76.2544 100° East 430 495 23,000  Level FlightAware ADS-B
Tue 03:59:33 PM 39.2293 -76.1707 99° East 430 495 23,000 286 Level FlightAware ADS-B
Tue 04:00:03 PM 39.2195 -76.0945 100° East 433 498 23,300 1,279 Climbing FlightAware ADS-B
Tue 04:00:34 PM 39.2094 -76.0170 99° East 438 504 24,300 1,811 Climbing FlightAware ADS-B
Tue 04:00:56 PM 39.2023 -75.9577 92° East 444 511 24,900 1,655 Climbing FlightAware ADS-B
Tue 04:01:03 PM 39.2019 -75.9415 86° East 445 512 25,100 2,000 Climbing FlightAware ADS-B
Tue 04:01:11 PM 39.2032 -75.9188 82° East 447 514 25,400 2,143 Climbing FlightAware ADS-B
Tue 04:01:17 PM 39.2050 -75.9032 74° East 448 516 25,600 1,846 Climbing FlightAware ADS-B
Tue 04:01:24 PM 39.2087 -75.8860 67° East 451 519 25,800 1,412 Climbing FlightAware ADS-B
Tue 04:01:34 PM 39.2174 -75.8593 58° Northeast 455 524 26,000 1,200 Climbing FlightAware ADS-B
Tue 04:01:44 PM 39.2281 -75.8370 47° Northeast 459 528 26,200 1,429 Climbing FlightAware ADS-B
Tue 04:02:16 PM 39.2745 -75.7732 45° Northeast 466 536 27,000 1,518 Climbing FlightAware ADS-B
Tue 04:03:07 PM 39.3528 -75.6724 45° Northeast 474 545 28,300 1,317 Climbing FlightAware ADS-B
Tue 04:03:38 PM 39.4010 -75.6098 45° Northeast 484 557 28,800 1,048 Climbing FlightAware ADS-B
Tue 04:04:10 PM 39.4521 -75.5435 45° Northeast 491 565 29,400 1,235 Climbing FlightAware ADS-B
Tue 04:04:46 PM 39.5102 -75.4678 45° Northeast 495 570 30,200 1,479 Climbing FlightAware ADS-B
Tue 04:05:23 PM 39.5695 -75.3903 45° Northeast 494 568 31,200 1,391 Climbing FlightAware ADS-B
Tue 04:05:55 PM 39.6208 -75.3230 47° Northeast 497 572 31,800 1,355 Climbing FlightAware ADS-B
Tue 04:06:25 PM 39.6688 -75.2568 47° Northeast 495 570 32,600 1,739 Climbing FlightAware ADS-B
Tue 04:07:04 PM 39.7284 -75.1727 47° Northeast 488 562 33,800 1,571 Climbing FlightAware ADS-B
Tue 04:07:49 PM 39.7962 -75.0769 48° Northeast 485 558 34,800 1,200 Climbing FlightAware ADS-B
Tue 04:08:24 PM 39.8489 -75.0019 48° Northeast 488 562 35,400 1,130 Climbing FlightAware ADS-B
Tue 04:08:58 PM 39.9018 -74.9265 48° Northeast 488 562 36,100 1,130 Climbing FlightAware ADS-B
Tue 04:09:33 PM 39.9550 -74.8506 48° Northeast 487 560 36,700 783 Climbing FlightAware ADS-B
Tue 04:10:07 PM 40.0060 -74.7775 48° Northeast 493 567 37,000 281 Climbing FlightAware ADS-B
Tue 04:10:37 PM 40.0526 -74.7105 48° Northeast 496 571 37,000  Level FlightAware ADS-B
Tue 04:11:08 PM 40.1003 -74.6422 48° Northeast 493 567 37,000  Level FlightAware ADS-B
Tue 04:11:39 PM 40.1460 -74.5761 48° Northeast 489 563 37,000  Level FlightAware ADS-B
Tue 04:12:09 PM 40.1922 -74.5092 48° Northeast 490 564 37,000  Level FlightAware ADS-B
Tue 04:12:46 PM 40.2477 -74.4291 48° Northeast 491 565 37,000  Level FlightAware ADS-B
Tue 04:13:19 PM 40.2981 -74.3560 48° Northeast 491 565 37,000  Level FlightAware ADS-B
Tue 04:13:51 PM 40.3465 -74.2854 48° Northeast 491 565 37,000  Level FlightAware ADS-B
Tue 04:14:21 PM 40.3924 -74.2183 48° Northeast 491 565 37,000  Level FlightAware ADS-B
Tue 04:14:51 PM 40.4382 -74.1514 48° Northeast 493 567 37,000  Level FlightAware ADS-B
Tue 04:15:24 PM 40.4885 -74.0777 48° Northeast 494 568 37,000  Level FlightAware ADS-B
Tue 04:15:55 PM 40.5352 -74.0091 48° Northeast 496 571 37,000  Level FlightAware ADS-B
Tue 04:16:28 PM 40.5856 -73.9348 48° Northeast 497 572 37,000  Level FlightAware ADS-B
Tue 04:17:01 PM 40.6356 -73.8613 48° Northeast 497 572 37,000  Level FlightAware ADS-B
Tue 04:17:34 PM 40.6861 -73.7864 49° Northeast 497 572 37,000  Level FlightAware ADS-B
Tue 04:17:38 PM 40.6924 -73.7770 48° Northeast 496 571 37,000  Level FlightAware ADS-B
Tue 04:18:05 PM 40.7331 -73.7166 48° Northeast 497 572 37,000  Level FlightAware ADS-B
Tue 04:18:30 PM 40.7714 -73.6595 48° Northeast 496 571 37,000  Level FlightAware ADS-B
Tue 04:18:36 PM 40.7801 -73.6467 48° Northeast 495 570 37,000  Level FlightAware ADS-B
Tue 04:19:03 PM 40.8213 -73.5854 50° Northeast 495 570 37,000  Level FlightAware ADS-B
Tue 04:19:06 PM 40.8254 -73.5789 48° Northeast 495 570 37,000  Level FlightAware ADS-B
Tue 04:19:46 PM 40.8866 -73.4879 48° Northeast 495 570 37,000  Level FlightAware ADS-B
Tue 04:19:51 PM 40.8943 -73.4765 49° Northeast 495 570 37,000  Level FlightAware ADS-B
Tue 04:20:17 PM 40.9332 -73.4175 48° Northeast 494 568 37,000  Level FlightAware ADS-B
Tue 04:20:23 PM 40.9413 -73.4057 48° Northeast 494 568 37,000  Level FlightAware ADS-B
Tue 04:20:49 PM 40.9814 -73.3459 49° Northeast 493 567 37,000  Level FlightAware ADS-B
Tue 04:21:03 PM 41.0015 -73.3153 49° Northeast 493 567 37,000  Level FlightAware ADS-B
Tue 04:21:26 PM 41.0364 -73.2629 49° Northeast 493 567 37,000  Level FlightAware ADS-B
Tue 04:21:57 PM 41.0831 -73.1924 49° Northeast 494 568 37,000  Level FlightAware ADS-B
Tue 04:22:34 PM 41.1387 -73.1085 49° Northeast 495 570 37,000  Level FlightAware ADS-B
Tue 04:23:09 PM 41.1916 -73.0282 49° Northeast 496 571 37,000  Level FlightAware ADS-B
Tue 04:23:50 PM 41.2536 -72.9341 49° Northeast 498 573 37,000  Level FlightAware ADS-B
Tue 04:24:21 PM 41.2995 -72.8636 38° Northeast 498 573 37,000  Level FlightAware ADS-B
Tue 04:24:38 PM 41.3158 -72.8464 50° Northeast 490 564 37,000  Level Boston Center
Tue 04:25:38 PM 41.4039 -72.7058 49° Northeast 490 564 37,000  Level Boston Center
Tue 04:26:38 PM 41.4981 -72.5619 50° Northeast 495 570 37,000  Level Boston Center
Tue 04:27:38 PM 41.5939 -72.4094 50° Northeast 500 575 37,000  Level Boston Center
Tue 04:28:38 PM 41.6853 -72.2650 48° Northeast 500 575 37,000  Level Boston Center
Tue 04:29:38 PM 41.7811 -72.1200 52° Northeast 506 582 37,000  Level Boston Center
Tue 04:30:38 PM 41.8658 -71.9717 63° Northeast 506 582 37,000  Level Boston Center
Tue 04:31:38 PM 41.9317 -71.8011 63° Northeast 506 582 37,000  Level Boston Center
Tue 04:32:38 PM 41.9972 -71.6300 62° Northeast 501 577 37,000  Level Boston Center
Tue 04:33:38 PM 42.0544 -71.4839 64° Northeast 495 570 37,000  Level Boston Center
Tue 04:34:38 PM 42.1175 -71.3094 64° Northeast 501 577 37,000  Level Boston Center
Tue 04:35:38 PM 42.1822 -71.1317 64° Northeast 509 586 37,000  Level Boston Center
Tue 04:36:38 PM 42.2428 -70.9622 65° Northeast 508 585 37,000  Level Boston Center
Tue 04:37:38 PM 42.3131 -70.7611 63° Northeast 515 593 37,000  Level Boston Center
Tue 04:38:38 PM 42.3769 -70.5881 65° Northeast 515 593 37,000  Level Boston Center
Tue 04:39:38 PM 42.4364 -70.4144 64° Northeast 510 587 37,000  Level Boston Center
Tue 04:40:38 PM 42.5000 -70.2378 64° Northeast 510 587 37,000  Level Boston Center
Tue 04:41:38 PM 42.5631 -70.0608 64° Northeast 510 587 37,000  Level Boston Center
Tue 04:42:38 PM 42.6258 -69.8836 65° Northeast 510 587 37,000  Level Boston Center
Tue 04:43:38 PM 42.6864 -69.7058 65° Northeast 510 587 37,000  Level Boston Center
Tue 04:44:38 PM 42.7467 -69.5306 212° Southwest 510 587 37,000  Level Boston Center
Tue 04:44:56 PM 42.7380 -69.5380 65° Northeast 522 601 37,000  Level FlightAware ADS-B
Tue 04:45:38 PM 42.8022 -69.3469 65° Northeast 510 587 37,000  Level Boston Center
Tue 04:46:38 PM 42.8619 -69.1683 65° Northeast 510 587 37,000  Level Boston Center
Tue 04:47:38 PM 42.9233 -68.9864 66° East 515 593 37,000 -50 Level Boston Center
Tue 04:48:38 PM 42.9822 -68.8069 66° East 515 593 36,900  Descending Boston Center
Tue 04:49:38 PM 43.0392 -68.6303 66° East 509 586 37,000 50 Climbing Boston Center
Tue 04:50:38 PM 43.0975 -68.4472 64° Northeast 509 586 37,000  Level Boston Center
Tue 04:51:38 PM 43.1619 -68.2694 66° East 509 586 37,000  Level Boston Center
Tue 04:52:38 PM 43.2197 -68.0886 66° East 509 586 37,000  Level Boston Center
Tue 04:53:38 PM 43.2792 -67.9019 66° East 515 593 37,000  Level Boston Center
Tue 04:54:38 PM 43.3367 -67.7206 75° East 515 593 37,000  Level Boston Center
Tue 04:55:36 PM 43.3667 -67.5667 65° Northeast 520 598 37,000  Level Moncton Center
Tue 04:56:36 PM 43.4333 -67.3667 71° East 530 610 37,000  Level Moncton Center
Tue 04:57:36 PM 43.4833 -67.1667 69° East 520 598 37,000  Level Moncton Center
Tue 04:58:36 PM 43.5333 -66.9833 63° Northeast 530 610 37,000  Level Moncton Center
Tue 04:59:36 PM 43.6000 -66.8000 69° East 530 610 37,000  Level Moncton Center
Tue 05:00:36 PM 43.6500 -66.6167 69° East 520 598 37,000 250 Level Moncton Center
Tue 05:01:36 PM 43.7000 -66.4333 72° East 520 598 37,500 600 Climbing Moncton Center
Tue 05:02:36 PM 43.7500 -66.2167 69° East 530 610 38,200 750 Climbing Moncton Center
Tue 05:03:36 PM 43.8000 -66.0333 58° Northeast 530 610 39,000 400 Climbing Moncton Center
Tue 05:04:36 PM 43.8833 -65.8500 76° East 520 598 39,000  Level Moncton Center
Tue 05:05:36 PM 43.9167 -65.6667 69° East 520 598 39,000  Level Moncton Center
Tue 05:06:36 PM 43.9667 -65.4833 69° East 520 598 39,000  Level Moncton Center
Tue 05:07:36 PM 44.0167 -65.3000 71° East 520 598 39,000  Level Moncton Center
Tue 05:08:36 PM 44.0667 -65.1000 67° East 520 598 39,000  Level Moncton Center
Tue 05:09:36 PM 44.1167 -64.9333 72° East 520 598 39,000  Level Moncton Center
Tue 05:10:36 PM 44.1667 -64.7167 62° Northeast 520 598 39,000  Level Moncton Center
Tue 05:11:23 PM 44.2167 -64.5833 69° East 520 598 39,000  Level Gander Center
Tue 05:12:23 PM 44.2667 -64.4000 76° East 520 598 39,000  Level Gander Center
Tue 05:13:23 PM 44.3000 -64.2167 63° Northeast 520 598 39,000  Level Gander Center
Tue 05:14:23 PM 44.3667 -64.0333 72° East 520 598 39,000  Level Gander Center
Tue 05:15:23 PM 44.4167 -63.8167 76° East 520 598 39,000  Level Gander Center
Tue 05:16:23 PM 44.4500 -63.6333 69° East 520 598 39,000  Level Gander Center
Tue 05:17:23 PM 44.5000 -63.4500 63° Northeast 510 587 39,000  Level Gander Center
Tue 05:18:23 PM 44.5667 -63.2667 77° East 510 587 39,000  Level Gander Center
Tue 05:19:23 PM 44.6000 -63.0667 67° East 510 587 39,000  Level Gander Center
Tue 05:20:23 PM 44.6500 -62.9000 76° East 510 587 39,000  Level Gander Center
Tue 05:21:23 PM 44.6833 -62.7167 69° East 510 587 39,000  Level Gander Center
Tue 05:22:23 PM 44.7333 -62.5333 71° East 510 587 39,000  Level Gander Center
Tue 05:23:23 PM 44.7833 -62.3333 77° East 500 575 39,000  Level Gander Center
Tue 05:24:23 PM 44.8167 -62.1333 67° East 500 575 39,000  Level Gander Center
Tue 05:25:23 PM 44.8667 -61.9667 69° East 500 575 39,000  Level Gander Center
Tue 05:26:23 PM 44.9167 -61.7833 70° East 500 575 39,000  Level Gander Center
Tue 05:27:23 PM 44.9667 -61.5833 76° East 500 575 39,000  Level Gander Center
Tue 05:28:23 PM 45.0000 -61.4000 69° East 490 564 39,000  Level Gander Center
Tue 05:29:23 PM 45.0500 -61.2167 74° East 490 564 39,000  Level Gander Center
Tue 05:30:23 PM 45.0833 -61.0500 70° East 490 564 39,000  Level Gander Center
Tue 05:31:23 PM 45.1333 -60.8500 75° East 490 564 39,000  Level Gander Center
Tue 05:32:23 PM 45.1667 -60.6667 75° East 490 564 39,000  Level Gander Center
Tue 05:33:23 PM 45.2000 -60.4833 74° East 490 564 39,000  Level Gander Center
Tue 05:34:23 PM 45.2333 -60.3167 70° East 490 564 39,000  Level Gander Center
Tue 05:35:23 PM 45.2833 -60.1167 74° East 480 552 39,000  Level Gander Center
Tue 05:36:23 PM 45.3167 -59.9500 69° East 480 552 39,000  Level Gander Center
Tue 05:37:23 PM 45.3667 -59.7667 74° East 470 541 39,000  Level Gander Center
Tue 05:38:23 PM 45.4000 -59.6000 70° East 470 541 39,000  Level Gander Center
Tue 05:39:23 PM 45.4500 -59.4000 82° East 470 541 39,000  Level Gander Center
Tue 05:40:23 PM 45.4667 -59.2333 69° East 470 541 39,000  Level Gander Center
Tue 05:41:23 PM 45.5167 -59.0500 77° East 470 541 39,000  Level Gander Center
Tue 05:42:23 PM 45.5500 -58.8500 67° East 480 552 39,000  Level Gander Center
Tue 05:43:23 PM 45.6000 -58.6833 83° East 480 552 39,000  Level Gander Center
Tue 05:44:23 PM 45.6167 -58.4833 67° East 480 552 39,000  Level Gander Center
Tue 05:45:23 PM 45.6667 -58.3167 75° East 480 552 39,000  Level Gander Center
Tue 05:46:23 PM 45.7000 -58.1333 74° East 480 552 39,000  Level Gander Center
Tue 05:47:23 PM 45.7333 -57.9667 76° East 470 541 39,000  Level Gander Center
Tue 05:48:23 PM 45.7667 -57.7667 74° East 470 541 39,000  Level Gander Center
Tue 05:49:23 PM 45.8000 -57.6000 70° East 470 541 39,000  Level Gander Center
Tue 05:50:23 PM 45.8500 -57.4000 82° East 480 552 39,000  Level Gander Center
Tue 05:51:23 PM 45.8667 -57.2333 70° East 480 552 39,000  Level Gander Center
Tue 05:52:23 PM 45.9167 -57.0333 82° East 480 552 39,000  Level Gander Center
Tue 05:53:23 PM 45.9333 -56.8667 70° East 480 552 39,000  Level Gander Center
Tue 05:54:23 PM 45.9833 -56.6667 82° East 480 552 39,000  Level Gander Center
Tue 05:55:23 PM 46.0000 -56.5000 70° East 470 541 39,000  Level Gander Center
Tue 05:56:23 PM 46.0500 -56.3000 82° East 470 541 39,000  Level Gander Center
Tue 05:57:23 PM 46.0667 -56.1167 75° East 480 552 39,000  Level Gander Center
Tue 05:58:23 PM 46.1000 -55.9333 74° East 470 541 39,000  Level Gander Center
Tue 05:59:23 PM 46.1333 -55.7667 76° East 470 541 39,000  Level Gander Center
Tue 06:00:23 PM 46.1667 -55.5667 74° East 460 529 39,000  Level Gander Center
Tue 06:01:23 PM 46.2000 -55.4000 75° East 460 529 39,000  Level Gander Center
Tue 06:02:23 PM 46.2333 -55.2167 82° East 460 529 39,000  Level Gander Center
Tue 06:03:23 PM 46.2500 -55.0500 76° East 460 529 39,000  Level Gander Center
Tue 06:04:23 PM 46.2833 -54.8500 74° East 460 529 39,000  Level Gander Center
Tue 06:05:23 PM 46.3167 -54.6833 76° East 460 529 39,000  Level Gander Center
Tue 06:06:23 PM 46.3500 -54.4833 82° East 460 529 39,000  Level Gander Center
Tue 06:07:23 PM 46.3667 -54.3167 70° East 470 541 39,000  Level Gander Center
Tue 06:08:23 PM 46.4167 -54.1167 82° East 470 541 39,000  Level Gander Center
Tue 06:09:23 PM 46.4333 -53.9333 76° East 470 541 39,000  Level Gander Center
Tue 06:10:23 PM 46.4667 -53.7333 82° East 470 541 39,000  Level Gander Center
Tue 06:11:23 PM 46.4833 -53.5667 75° East 470 541 39,000  Level Gander Center
Tue 06:12:23 PM 46.5167 -53.3833 76° East 480 552 39,000  Level Gander Center
Tue 06:13:23 PM 46.5500 -53.1833 74° East 480 552 39,000  Level Gander Center
Tue 06:14:23 PM 46.5833 -53.0167 83° East 480 552 39,000  Level Gander Center
Tue 06:15:23 PM 46.6000 -52.8167 76° East 480 552 39,000  Level Gander Center
Tue 06:16:23 PM 46.6333 -52.6167 83° East 480 552 39,000  Level Gander Center
Tue 06:17:23 PM 46.6500 -52.4167 75° East 480 552 39,000  Level Gander Center
Tue 06:18:23 PM 46.6833 -52.2333 74° East 490 564 39,000  Level Gander Center
Tue 06:19:23 PM 46.7167 -52.0667 78° East 490 564 39,000  Level Gander Center
Tue 06:20:23 PM 46.7500 -51.8333 82° East 490 564 39,000  Level Gander Center
Tue 06:21:23 PM 46.7667 -51.6667 76° East 490 564 39,000  Level Gander Center
Tue 06:22:23 PM 46.8000 -51.4667 83° East 490 564 39,000  Level Gander Center
Tue 06:23:23 PM 46.8167 -51.2667 83° East 500 575 39,000  Level Gander Center
Tue 06:24:23 PM 46.8333 -51.0667 77° East 500 575 39,000  Level Gander Center
Tue 06:25:23 PM 46.8667 -50.8500 76° East 490 564 39,000  Level Gander Center
Tue 06:26:23 PM 46.9000 -50.6500 82° East 500 575 39,000  Level Gander Center
Tue 06:27:23 PM 46.9167 -50.4833 76° East 500 575 39,000  Level Gander Center
Tue 06:28:23 PM 46.9500 -50.2833 83° East 490 564 39,000  Level Gander Center
Tue 06:29:23 PM 46.9667 -50.0833 77° East 490 564 39,000  Level Gander Center
Tue 06:30:23 PM 47.0000 -49.8667 83° East 490 564 39,000  Level Gander Center
Tue 06:31:23 PM 47.0167 -49.6667 75° East 490 564 39,000  Level Gander Center
Tue 06:32:23 PM 47.0500 -49.4833 76° East 490 564 39,000  Level Gander Center
Tue 06:33:23 PM 47.0833 -49.2833 75° East 490 564 39,000  Level Gander Center
Tue 06:34:23 PM 47.1167 -49.1000 83° East 500 575 39,000  Level Gander Center
Tue 06:35:23 PM 47.1333 -48.8833 75° East 500 575 39,000  Level Gander Center
Tue 06:36:23 PM 47.1667 -48.7000 82° East 490 564 39,000  Level Gander Center
Tue 06:37:23 PM 47.1833 -48.5167 78° East 500 575 39,000  Level Gander Center
Tue 06:38:23 PM 47.2167 -48.2833 82° East 500 575 39,000  Level Gander Center
Tue 06:39:23 PM 47.2333 -48.1000 83° East 500 575 39,000  Level Gander Center
Tue 06:40:23 PM 47.2500 -47.9000 76° East 500 575 39,000  Level Gander Center
Tue 06:41:23 PM 47.2833 -47.7000 83° East 500 575 39,000  Level Gander Center
Tue 06:42:23 PM 47.3000 -47.4833 76° East 510 587 39,000  Level Gander Center
Tue 06:43:23 PM 47.3333 -47.2833 83° East 510 587 39,000  Level Gander Center
Tue 06:44:23 PM 47.3500 -47.0833 75° East 500 575 39,000  Level Gander Center
Tue 06:45:23 PM 47.3833 -46.9000 83° East 510 587 39,000  Level Gander Center
Tue 06:46:23 PM 47.4000 -46.6833 76° East 510 587 39,000  Level Gander Center
Tue 06:47:23 PM 47.4333 -46.4833 67° East 510 587 39,000  Level Gander Center
Tue 06:55:00 PM 47.7626 -45.0552 68° East  Level FlightAware Approximate
Tue 06:56:00 PM 47.8045 -44.8663 68° East  Level FlightAware Approximate
Tue 06:57:00 PM 47.8461 -44.6772 68° East  Level FlightAware Approximate
Tue 06:58:00 PM 47.8874 -44.4878 69° East  Level FlightAware Approximate
Tue 06:59:00 PM 47.9284 -44.2980 69° East  Level FlightAware Approximate
Tue 07:00:00 PM 47.9691 -44.1080 69° East  Level FlightAware Approximate
Tue 07:01:00 PM 48.0094 -43.9176 69° East  Level FlightAware Approximate
Tue 07:02:00 PM 48.0494 -43.7270 69° East  Level FlightAware Approximate
Tue 07:03:00 PM 48.0892 -43.5361 69° East  Level FlightAware Approximate
Tue 07:04:00 PM 48.1286 -43.3449 69° East  Level FlightAware Approximate
Tue 07:05:00 PM 48.1676 -43.1534 69° East  Level FlightAware Approximate
Tue 07:06:00 PM 48.2064 -42.9616 69° East  Level FlightAware Approximate
Tue 07:07:00 PM 48.2449 -42.7695 70° East  Level FlightAware Approximate
Tue 07:08:00 PM 48.2830 -42.5771 70° East  Level FlightAware Approximate
Tue 07:09:00 PM 48.3208 -42.3844 70° East  Level FlightAware Approximate
Tue 07:10:00 PM 48.3583 -42.1915 70° East  Level FlightAware Approximate
Tue 07:11:00 PM 48.3954 -41.9982 70° East  Level FlightAware Approximate
Tue 07:12:00 PM 48.4323 -41.8047 70° East  Level FlightAware Approximate
Tue 07:13:00 PM 48.4688 -41.6109 70° East  Level FlightAware Approximate
Tue 07:14:00 PM 48.5050 -41.4168 70° East  Level FlightAware Approximate
Tue 07:15:00 PM 48.5408 -41.2225 71° East  Level FlightAware Approximate
Tue 07:16:00 PM 48.5764 -41.0279 71° East  Level FlightAware Approximate
Tue 07:17:00 PM 48.6115 -40.8330 71° East  Level FlightAware Approximate
Tue 07:18:00 PM 48.6464 -40.6378 71° East  Level FlightAware Approximate
Tue 07:19:00 PM 48.6810 -40.4423 71° East  Level FlightAware Approximate
Tue 07:20:00 PM 48.7152 -40.2466 71° East  Level FlightAware Approximate
Tue 07:21:00 PM 48.7491 -40.0507 71° East  Level FlightAware Approximate
Tue 07:22:00 PM 48.7826 -39.8544 71° East  Level FlightAware Approximate
Tue 07:23:00 PM 48.8158 -39.6579 72° East  Level FlightAware Approximate
Tue 07:24:00 PM 48.8553 -39.4640 72° East  Level FlightAware Approximate
Tue 07:25:00 PM 48.8944 -39.2697 72° East  Level FlightAware Approximate
Tue 07:26:00 PM 48.9332 -39.0751 72° East  Level FlightAware Approximate
Tue 07:27:00 PM 48.9716 -38.8803 72° East  Level FlightAware Approximate
Tue 07:28:00 PM 49.0098 -38.6851 72° East  Level FlightAware Approximate
Tue 07:29:00 PM 49.0476 -38.4896 72° East  Level FlightAware Approximate
Tue 07:30:00 PM 49.0851 -38.2939 72° East  Level FlightAware Approximate
Tue 07:31:00 PM 49.1222 -38.0978 73° East  Level FlightAware Approximate
Tue 07:32:00 PM 49.1590 -37.9015 73° East  Level FlightAware Approximate
Tue 07:33:00 PM 49.1955 -37.7048 73° East  Level FlightAware Approximate
Tue 07:34:00 PM 49.2317 -37.5079 73° East  Level FlightAware Approximate
Tue 07:35:00 PM 49.2675 -37.3107 73° East  Level FlightAware Approximate
Tue 07:36:00 PM 49.3030 -37.1132 73° East  Level FlightAware Approximate
Tue 07:37:00 PM 49.3381 -36.9154 73° East  Level FlightAware Approximate
Tue 07:38:00 PM 49.3729 -36.7174 74° East  Level FlightAware Approximate
Tue 07:39:00 PM 49.4074 -36.5190 74° East  Level FlightAware Approximate
Tue 07:40:00 PM 49.4415 -36.3204 74° East  Level FlightAware Approximate
Tue 07:41:00 PM 49.4753 -36.1215 74° East  Level FlightAware Approximate
Tue 07:42:00 PM 49.5088 -35.9223 74° East  Level FlightAware Approximate
Tue 07:43:00 PM 49.5419 -35.7229 74° East  Level FlightAware Approximate
Tue 07:44:00 PM 49.5746 -35.5232 74° East  Level FlightAware Approximate
Tue 07:45:00 PM 49.6070 -35.3232 75° East  Level FlightAware Approximate
Tue 07:46:00 PM 49.6391 -35.1230 75° East  Level FlightAware Approximate
Tue 07:47:00 PM 49.6708 -34.9225 75° East  Level FlightAware Approximate
Tue 07:48:00 PM 49.7022 -34.7217 75° East  Level FlightAware Approximate
Tue 07:49:00 PM 49.7332 -34.5207 75° East  Level FlightAware Approximate
Tue 07:50:00 PM 49.7639 -34.3194 75° East  Level FlightAware Approximate
Tue 07:51:00 PM 49.7942 -34.1179 75° East  Level FlightAware Approximate
Tue 07:52:00 PM 49.8242 -33.9161 76° East  Level FlightAware Approximate
Tue 07:53:00 PM 49.8538 -33.7141 76° East  Level FlightAware Approximate
Tue 07:54:00 PM 49.8831 -33.5118 76° East  Level FlightAware Approximate
Tue 07:55:00 PM 49.9120 -33.3093 76° East  Level FlightAware Approximate
Tue 07:56:00 PM 49.9406 -33.1065 76° East  Level FlightAware Approximate
Tue 07:57:00 PM 49.9688 -32.9035 76° East  Level FlightAware Approximate
Tue 07:58:00 PM 49.9967 -32.7003 76° East  Level FlightAware Approximate
Tue 07:59:00 PM 50.0242 -32.4968 77° East  Level FlightAware Approximate
Tue 08:00:00 PM 50.0514 -32.2931 77° East  Level FlightAware Approximate
Tue 08:01:00 PM 50.0782 -32.0892 77° East  Level FlightAware Approximate
Tue 08:02:00 PM 50.1046 -31.8850 77° East  Level FlightAware Approximate
Tue 08:03:00 PM 50.1307 -31.6806 77° East  Level FlightAware Approximate
Tue 08:04:00 PM 50.1564 -31.4760 77° East  Level FlightAware Approximate
Tue 08:05:00 PM 50.1818 -31.2712 77° East  Level FlightAware Approximate
Tue 08:06:00 PM 50.2068 -31.0662 78° East  Level FlightAware Approximate
Tue 08:07:00 PM 50.2314 -30.8609 78° East  Level FlightAware Approximate
Tue 08:08:00 PM 50.2557 -30.6554 78° East  Level FlightAware Approximate
Tue 08:09:00 PM 50.2796 -30.4498 78° East  Level FlightAware Approximate
Tue 08:10:00 PM 50.3032 -30.2439 78° East  Level FlightAware Approximate
Tue 08:11:00 PM 50.3301 -30.0389 78° East  Level FlightAware Approximate
Tue 08:12:00 PM 50.3566 -29.8337 78° East  Level FlightAware Approximate
Tue 08:13:00 PM 50.3828 -29.6283 79° East  Level FlightAware Approximate
Tue 08:14:00 PM 50.4086 -29.4226 79° East  Level FlightAware Approximate
Tue 08:15:00 PM 50.4341 -29.2167 79° East  Level FlightAware Approximate
Tue 08:16:00 PM 50.4592 -29.0106 79° East  Level FlightAware Approximate
Tue 08:17:00 PM 50.4839 -28.8043 79° East  Level FlightAware Approximate
Tue 08:18:00 PM 50.5083 -28.5978 79° East  Level FlightAware Approximate
Tue 08:19:00 PM 50.5322 -28.3910 79° East  Level FlightAware Approximate
Tue 08:20:00 PM 50.5559 -28.1840 80° East  Level FlightAware Approximate
Tue 08:21:00 PM 50.5792 -27.9769 80° East  Level FlightAware Approximate
Tue 08:22:00 PM 50.6021 -27.7695 80° East  Level FlightAware Approximate
Tue 08:23:00 PM 50.6246 -27.5620 80° East  Level FlightAware Approximate
Tue 08:24:00 PM 50.6467 -27.3542 80° East  Level FlightAware Approximate
Tue 08:25:00 PM 50.6685 -27.1462 80° East  Level FlightAware Approximate
Tue 08:26:00 PM 50.6899 -26.9381 81° East  Level FlightAware Approximate
Tue 08:27:00 PM 50.7110 -26.7297 81° East  Level FlightAware Approximate
Tue 08:28:00 PM 50.7317 -26.5212 81° East  Level FlightAware Approximate
Tue 08:29:00 PM 50.7520 -26.3125 81° East  Level FlightAware Approximate
Tue 08:30:00 PM 50.7719 -26.1036 81° East  Level FlightAware Approximate
Tue 08:31:00 PM 50.7915 -25.8946 81° East  Level FlightAware Approximate
Tue 08:32:00 PM 50.8106 -25.6854 82° East  Level FlightAware Approximate
Tue 08:33:00 PM 50.8294 -25.4760 82° East  Level FlightAware Approximate
Tue 08:34:00 PM 50.8479 -25.2664 82° East  Level FlightAware Approximate
Tue 08:35:00 PM 50.8659 -25.0567 82° East  Level FlightAware Approximate
Tue 08:36:00 PM 50.8836 -24.8468 82° East  Level FlightAware Approximate
Tue 08:37:00 PM 50.9009 -24.6367 82° East  Level FlightAware Approximate
Tue 08:38:00 PM 50.9179 -24.4265 82° East  Level FlightAware Approximate
Tue 08:39:00 PM 50.9344 -24.2161 83° East  Level FlightAware Approximate
Tue 08:40:00 PM 50.9506 -24.0056 83° East  Level FlightAware Approximate
Tue 08:41:00 PM 50.9664 -23.7950 83° East  Level FlightAware Approximate
Tue 08:42:00 PM 50.9818 -23.5842 83° East  Level FlightAware Approximate
Tue 08:43:00 PM 50.9968 -23.3732 83° East  Level FlightAware Approximate
Tue 08:44:00 PM 51.0115 -23.1622 83° East  Level FlightAware Approximate
Tue 08:45:00 PM 51.0257 -22.9510 84° East  Level FlightAware Approximate
Tue 08:46:00 PM 51.0396 -22.7396 84° East  Level FlightAware Approximate
Tue 08:47:00 PM 51.0532 -22.5282 84° East  Level FlightAware Approximate
Tue 08:48:00 PM 51.0663 -22.3166 84° East  Level FlightAware Approximate
Tue 08:49:00 PM 51.0790 -22.1049 84° East  Level FlightAware Approximate
Tue 08:50:00 PM 51.0914 -21.8931 84° East  Level FlightAware Approximate
Tue 08:51:00 PM 51.1034 -21.6812 85° East  Level FlightAware Approximate
Tue 08:52:00 PM 51.1150 -21.4692 85° East  Level FlightAware Approximate
Tue 08:53:00 PM 51.1262 -21.2570 85° East  Level FlightAware Approximate
Tue 08:54:00 PM 51.1370 -21.0448 85° East  Level FlightAware Approximate
Tue 08:55:00 PM 51.1475 -20.8325 85° East  Level FlightAware Approximate
Tue 08:56:00 PM 51.1575 -20.6201 85° East  Level FlightAware Approximate
Tue 08:57:00 PM 51.1672 -20.4075 85° East  Level FlightAware Approximate
Tue 08:58:00 PM 51.1765 -20.1949 86° East  Level FlightAware Approximate
Tue 08:59:00 PM 51.1903 -19.9829 86° East  Level FlightAware Approximate
Tue 09:00:00 PM 51.2036 -19.7707 86° East  Level FlightAware Approximate
Tue 09:01:00 PM 51.2166 -19.5584 86° East  Level FlightAware Approximate
Tue 09:02:00 PM 51.2292 -19.3460 86° East  Level FlightAware Approximate
Tue 09:03:00 PM 51.2414 -19.1335 87° East  Level FlightAware Approximate
Tue 09:04:00 PM 51.2533 -18.9209 87° East  Level FlightAware Approximate
Tue 09:05:00 PM 51.2647 -18.7081 87° East  Level FlightAware Approximate
Tue 09:06:00 PM 51.2758 -18.4953 87° East  Level FlightAware Approximate
Tue 09:07:00 PM 51.2864 -18.2824 88° East  Level FlightAware Approximate
Tue 09:08:00 PM 51.2967 -18.0693 88° East  Level FlightAware Approximate
Tue 09:09:00 PM 51.3066 -17.8562 88° East  Level FlightAware Approximate
Tue 09:10:00 PM 51.3161 -17.6430 88° East  Level FlightAware Approximate
Tue 09:11:00 PM 51.3253 -17.4296 88° East  Level FlightAware Approximate
Tue 09:12:00 PM 51.3340 -17.2162 89° East  Level FlightAware Approximate
Tue 09:13:00 PM 51.3424 -17.0028 89° East  Level FlightAware Approximate
Tue 09:14:00 PM 51.3503 -16.7892 89° East  Level FlightAware Approximate
Tue 09:15:00 PM 51.3579 -16.5756 89° East  Level FlightAware Approximate
Tue 09:16:00 PM 51.3651 -16.3619 90° East  Level FlightAware Approximate
Tue 09:17:00 PM 51.3719 -16.1481 90° East  Level FlightAware Approximate
Tue 09:18:00 PM 51.3783 -15.9343 90° East  Level FlightAware Approximate
Tue 09:19:00 PM 51.3843 -15.7205 91° East  Level FlightAware Approximate
Tue 09:20:00 PM 51.3900 -15.5065 91° East  Level FlightAware Approximate
Tue 09:21:00 PM 51.3952 -15.2925 91° East  Level FlightAware Approximate
Tue 09:22:00 PM 51.4001 -15.0785 92° East  Level FlightAware Approximate
Tue 09:23:00 PM 51.4087 -14.8648 92° East  Level FlightAware Approximate
Tue 09:24:00 PM 51.4170 -14.6509 92° East  Level FlightAware Approximate
Tue 09:25:00 PM 51.4249 -14.4370 93° East  Level FlightAware Approximate
Tue 09:26:00 PM 51.4325 -14.2231 94° East  Level FlightAware Approximate
Tue 09:27:00 PM 51.4396 -14.0090 94° East  Level FlightAware Approximate
Tue 09:28:00 PM 51.4463 -13.7949 95° East  Level FlightAware Approximate
Tue 09:29:00 PM 51.4527 -13.5807 96° East  Level FlightAware Approximate
Tue 09:30:00 PM 51.4586 -13.3665 97° East  Level FlightAware Approximate
Tue 09:31:00 PM 51.4642 -13.1522 98° East  Level FlightAware Approximate
Tue 09:32:48 PM 51.2570 -10.9380 86° East 504 580 39,000  Level FlightAware ADS-B
Tue 09:41:00 PM 51.3240 -9.1480 87° East 502 578 39,000  Level FlightAware ADS-B
Tue 09:42:42 PM 51.3350 -8.7850 88° East 505 581 39,000  Level FlightAware ADS-B
Tue 09:44:20 PM 51.3450 -8.3940 88° East 506 582 39,000  Level FlightAware ADS-B
Tue 09:44:53 PM 51.3480 -8.2450 88° East 507 583 39,000  Level FlightAware ADS-B
Tue 09:47:50 PM 51.3610 -7.6010 89° East 507 583 39,000  Level FlightAware ADS-B
Tue 09:48:45 PM 51.3640 -7.3950 88° East 506 582 39,000  Level FlightAware ADS-B
Tue 09:50:10 PM 51.3690 -7.0630 89° East 504 580 39,000  Level FlightAware ADS-B
Tue 09:51:05 PM 51.3720 -6.8590 89° East 504 580 39,000  Level FlightAware ADS-B
Tue 09:51:50 PM 51.3730 -6.6910 89° East 505 581 39,000  Level FlightAware ADS-B
Tue 09:52:30 PM 51.3750 -6.5420 89° East 505 581 39,000  Level FlightAware ADS-B
Tue 09:53:40 PM 51.3770 -6.2820 90° East 507 583 39,000  Level FlightAware ADS-B
Tue 09:54:50 PM 51.3780 -6.0180 89° East 507 583 39,000  Level FlightAware ADS-B
Tue 09:55:30 PM 51.3790 -5.8710 270° West 507 583 39,000  Level FlightAware ADS-B
Tue 09:56:13 PM 51.3770 -6.3240 89° East 507 583 39,000  Level FlightAware ADS-B
Tue 09:56:56 PM 51.3790 -5.6200 90° East 509 586 39,000  Level FlightAware ADS-B
Tue 09:57:35 PM 51.3794 -5.3987 90° East 511 588 39,000  Level FlightAware ADS-B
Tue 09:58:06 PM 51.3792 -5.2819 90° East 513 590 39,000  Level FlightAware ADS-B
Tue 09:58:36 PM 51.3790 -5.1675 90° East 514 592 39,000  Level FlightAware ADS-B
Tue 09:59:07 PM 51.3786 -5.0507 90° East 514 592 39,000  Level FlightAware ADS-B
Tue 09:59:38 PM 51.3780 -4.9314 90° East 513 590 39,000  Level FlightAware ADS-B
Tue 10:00:09 PM 51.3774 -4.8177 90° East 512 589 39,000  Level FlightAware ADS-B
Tue 10:00:42 PM 51.3770 -4.7110 91° East 512 589 39,000  Level FlightAware ADS-B
Tue 10:00:48 PM 51.3764 -4.6693 91° East 512 589 39,000  Level FlightAware ADS-B
Tue 10:01:22 PM 51.3755 -4.5411 247° West 511 588 39,000  Level FlightAware ADS-B
Tue 10:01:22 PM 51.3750 -4.5430 91° East 511 588 39,000  Level FlightAware ADS-B
Tue 10:02:00 PM 51.3741 -4.3963 91° East 509 586 39,000  Level FlightAware ADS-B
Tue 10:02:31 PM 51.3730 -4.2829 91° East 509 586 39,000  Level FlightAware ADS-B
Tue 10:03:01 PM 51.3717 -4.1677 91° East 510 587 39,000  Level FlightAware ADS-B
Tue 10:03:32 PM 51.3704 -4.0530 91° East 511 588 39,000  Level FlightAware ADS-B
Tue 10:04:02 PM 51.3689 -3.9379 91° East 512 589 39,000  Level FlightAware ADS-B
Tue 10:04:33 PM 51.3673 -3.8236 91° East 512 589 39,000  Level FlightAware ADS-B
Tue 10:05:03 PM 51.3656 -3.7093 91° East 512 589 39,000  Level FlightAware ADS-B
Tue 10:05:33 PM 51.3638 -3.5951 91° East 510 587 39,000  Level FlightAware ADS-B
Tue 10:06:04 PM 51.3619 -3.4802 275° West 509 586 39,000  Level FlightAware ADS-B
Tue 10:06:04 PM 51.3620 -3.4820 92° East 509 586 39,000  Level FlightAware ADS-B
Tue 10:06:34 PM 51.3598 -3.3659 92° East 509 586 39,000  Level FlightAware ADS-B
Tue 10:07:05 PM 51.3577 -3.2504 92° East 509 586 39,000  Level FlightAware ADS-B
Tue 10:07:36 PM 51.3555 -3.1356 92° East 510 587 39,000  Level FlightAware ADS-B
Tue 10:08:06 PM 51.3531 -3.0203 92° East 509 586 39,000  Level FlightAware ADS-B
Tue 10:08:37 PM 51.3505 -2.9044 92° East 509 586 39,000  Level FlightAware ADS-B
Tue 10:09:08 PM 51.3479 -2.7871 92° East 511 588 39,000  Level FlightAware ADS-B
Tue 10:09:39 PM 51.3451 -2.6730 92° East 511 588 39,000  Level FlightAware ADS-B
Tue 10:10:09 PM 51.3423 -2.5583 92° East 511 588 39,000  Level FlightAware ADS-B
Tue 10:10:39 PM 51.3393 -2.4448 92° East 513 590 39,000  Level FlightAware ADS-B
Tue 10:11:11 PM 51.3362 -2.3248 92° East 515 593 39,000  Level FlightAware ADS-B
Tue 10:11:42 PM 51.3330 -2.2092 93° East 513 590 39,000  Level FlightAware ADS-B
Tue 10:12:12 PM 51.3298 -2.0961 93° East 510 587 39,000  Level FlightAware ADS-B
Tue 10:12:42 PM 51.3264 -1.9822 93° East 509 586 39,000  Level FlightAware ADS-B
Tue 10:13:12 PM 51.3230 -1.8702 93° East 510 587 39,000  Level FlightAware ADS-B
Tue 10:13:43 PM 51.3193 -1.7534 93° East 511 588 39,000  Level FlightAware ADS-B
Tue 10:14:14 PM 51.3155 -1.6375 93° East 512 589 39,000  Level FlightAware ADS-B
Tue 10:14:44 PM 51.3117 -1.5238 93° East 513 590 39,000  Level FlightAware ADS-B
Tue 10:15:14 PM 51.3078 -1.4094 93° East 514 592 39,000  Level FlightAware ADS-B
Tue 10:15:45 PM 51.3037 -1.2939 93° East 513 590 39,000  Level FlightAware ADS-B
Tue 10:16:15 PM 51.2995 -1.1798 93° East 513 590 39,000  Level FlightAware ADS-B
Tue 10:16:45 PM 51.2953 -1.0667 93° East 513 590 39,000  Level FlightAware ADS-B
Tue 10:17:16 PM 51.2909 -0.9515 94° East 513 590 39,000  Level FlightAware ADS-B
Tue 10:17:46 PM 51.2864 -0.8367 94° East 512 589 39,000  Level FlightAware ADS-B
Tue 10:18:16 PM 51.2818 -0.7241 94° East 511 588 39,000  Level FlightAware ADS-B
Tue 10:18:48 PM 51.2770 -0.6060 94° East 510 587 39,000  Level FlightAware ADS-B
Tue 10:19:18 PM 51.2722 -0.4922 94° East 509 586 39,000  Level FlightAware ADS-B
Tue 10:19:48 PM 51.2672 -0.3796 94° East 509 586 39,000  Level FlightAware ADS-B
Tue 10:20:19 PM 51.2622 -0.2667 94° East 509 586 39,000  Level FlightAware ADS-B
Tue 10:20:49 PM 51.2571 -0.1538 94° East 509 586 39,000  Level FlightAware ADS-B
Tue 10:21:19 PM 51.2520 -0.0407 94° East 508 585 39,000  Level FlightAware ADS-B
Tue 10:21:50 PM 51.2466 0.0728 94° East 508 585 39,000  Level FlightAware ADS-B
Tue 10:22:21 PM 51.2410 0.1893 95° East 508 585 39,000  Level FlightAware ADS-B
Tue 10:22:52 PM 51.2353 0.3037 94° East 507 583 39,000  Level FlightAware ADS-B
Tue 10:23:22 PM 51.2297 0.4164 95° East 506 582 39,000  Level FlightAware ADS-B
Tue 10:23:53 PM 51.2238 0.5309 95° East 506 582 39,000  Level FlightAware ADS-B
Tue 10:24:23 PM 51.2179 0.6431 95° East 507 583 39,000  Level FlightAware ADS-B
Tue 10:24:54 PM 51.2119 0.7561 95° East 508 585 39,000  Level FlightAware ADS-B
Tue 10:25:08 PM 51.2088 0.8102 97° East 508 585 39,000  Level FlightAware ADS-B
Tue 10:25:20 PM 51.2052 0.8546 101° East 506 582 39,000  Level FlightAware ADS-B
Tue 10:25:51 PM 51.1915 0.9664 101° East 506 582 39,000  Level FlightAware ADS-B
Tue 10:26:21 PM 51.1776 1.0768 101° East 506 582 39,000  Level FlightAware ADS-B
Tue 10:26:52 PM 51.1634 1.1882 102° East 505 581 39,000  Level FlightAware ADS-B
Tue 10:27:23 PM 51.1489 1.3004 102° East 505 581 39,000  Level FlightAware ADS-B
Tue 10:27:55 PM 51.1338 1.4166 102° East 506 582 39,000  Level FlightAware ADS-B
Tue 10:28:26 PM 51.1191 1.5293 102° East 507 583 39,000  Level FlightAware ADS-B
Tue 10:29:09 PM 51.0990 1.6800 102° East 506 582 39,000  Level FlightAware ADS-B
Tue 10:29:24 PM 51.0913 1.7397 102° East 507 583 39,000  Level FlightAware ADS-B
Tue 10:29:56 PM 51.0753 1.8584 102° East 509 586 39,000  Level FlightAware ADS-B
Tue 10:30:27 PM 51.0602 1.9704 102° East 509 586 39,000  Level FlightAware ADS-B
Tue 10:30:58 PM 51.0449 2.0834 102° East 509 586 39,000  Level FlightAware ADS-B
Tue 10:31:28 PM 51.0298 2.1933 102° East 509 586 39,000  Level FlightAware ADS-B
Tue 10:31:58 PM 51.0146 2.3035 102° East 510 587 39,000  Level FlightAware ADS-B
Tue 10:32:28 PM 50.9994 2.4132 103° East 510 587 39,000  Level FlightAware ADS-B
Tue 10:33:00 PM 50.9832 2.5282 103° East 510 587 39,000  Level FlightAware ADS-B
Tue 10:33:30 PM 50.9677 2.6385 103° East 510 587 39,000  Level FlightAware ADS-B
Tue 10:34:01 PM 50.9521 2.7478 103° East 510 587 39,000  Level FlightAware ADS-B
Tue 10:34:32 PM 50.9359 2.8614 103° East 510 587 39,000  Level FlightAware ADS-B
Tue 10:35:04 PM 50.9189 2.9784 103° East 509 586 39,000  Level FlightAware ADS-B
Tue 10:35:35 PM 50.9030 3.0890 103° East 508 585 39,000  Level FlightAware ADS-B
Tue 10:36:20 PM 50.8920 3.1660 103° East 507 583 39,000  Level FlightAware ADS-B
Tue 10:37:06 PM 50.8560 3.4040 103° East 506 582 39,000  Level FlightAware ADS-B
Tue 10:38:29 PM 50.8120 3.7000 104° East 504 580 39,000  Level FlightAware ADS-B
Tue 10:39:13 PM 50.7910 3.8360 103° East 505 581 39,000  Level FlightAware ADS-B
Tue 10:40:20 PM 50.7510 4.0990 104° East 505 581 39,000  Level FlightAware ADS-B
Tue 10:40:48 PM 50.7360 4.1910 104° East 506 582 39,000  Level FlightAware ADS-B
Tue 10:41:40 PM 50.7070 4.3770 104° East 506 582 39,000  Level FlightAware ADS-B
Tue 10:42:20 PM 50.6860 4.5100 104° East 505 581 39,000 -274 Level FlightAware ADS-B
Tue 10:44:35 PM 50.6330 4.8410 104° East 500 575 38,200 -892 Descending FlightAware ADS-B
Tue 10:45:35 PM 50.5710 5.2170 360° North 482 555 36,100 -1,829 Descending FlightAware ADS-B
Tue 10:46:20 PM 50.5710 5.2170 105° East 473 544 35,000 -1,744 Descending FlightAware ADS-B
Tue 10:47:01 PM 50.5230 5.5020 105° East 465 535 33,600 -1,833 Descending FlightAware ADS-B
Tue 10:48:08 PM 50.4870 5.7140 105° East 460 529 31,700 -1,714 Descending FlightAware ADS-B
Tue 10:49:21 PM 50.4480 5.9430 106° East 449 517 29,600 -1,722 Descending FlightAware ADS-B
Tue 10:50:03 PM 50.4250 6.0710 105° East 446 513 28,400 -1,758 Descending FlightAware ADS-B
Tue 10:51:00 PM 50.3960 6.2350 105° East 446 513 26,700 -1,918 Descending FlightAware ADS-B
Tue 10:51:40 PM 50.3720 6.3760 81° East 438 504 25,300 -2,050 Descending FlightAware ADS-B
Tue 10:53:00 PM 50.3960 6.6270 107° East 430 495 22,600 -1,939 Descending FlightAware ADS-B
Tue 10:53:19 PM 50.3860 6.6770 112° Southeast 421 484 22,100 -2,000 Descending FlightAware ADS-B
Tue 10:54:00 PM 50.3550 6.7980 113° Southeast 415 478 20,600 -1,976 Descending FlightAware ADS-B
Tue 10:54:44 PM 50.3240 6.9110 113° Southeast 411 473 19,300 -1,835 Descending FlightAware ADS-B
Tue 10:55:25 PM 50.2950 7.0180 113° Southeast 406 467 18,000 -2,000 Descending FlightAware ADS-B
Tue 10:56:17 PM 50.2550 7.1640 113° Southeast 403 464 16,200 -2,147 Descending FlightAware ADS-B
Tue 10:57:00 PM 50.2210 7.2880 114° Southeast 396 456 14,600 -1,310 Descending FlightAware ADS-B
Tue 10:57:44 PM 50.2130 7.3160 113° Southeast 391 450 14,300 -2,025 Descending FlightAware ADS-B
Tue 10:58:20 PM 50.1640 7.4950 114° Southeast 385 443 11,900 -2,302 Descending FlightAware ADS-B
Tue 10:59:10 PM 50.1290 7.6190 112° Southeast 359 413 11,000 -675 Descending FlightAware ADS-B
Tue 10:59:40 PM 50.1110 7.6890 107° East 335 386 11,000  Level FlightAware ADS-B
Tue 11:00:30 PM 50.0900 7.7960 103° East 296 341 11,000  Level FlightAware ADS-B
Tue 11:01:00 PM 50.0810 7.8580 73° East 294 338 11,000  Level FlightAware ADS-B
Tue 11:01:40 PM 50.0970 7.9380 68° East 293 337 11,000  Level FlightAware ADS-B
Tue 11:02:20 PM 50.1170 8.0160 70° East 293 337 11,000 -600 Level FlightAware ADS-B
Tue 11:03:20 PM 50.1450 8.1340 68° East 286 329 10,000 -667 Descending FlightAware ADS-B
Tue 11:03:50 PM 50.1580 8.1850 70° East 284 327 10,000  Level FlightAware ADS-B
Tue 11:04:10 PM 50.1680 8.2270 85° East 284 327 10,000 -55 Level FlightAware ADS-B
Tue 11:05:40 PM 50.1780 8.3990 143° Southeast 294 338 9,900 -120 Descending FlightAware ADS-B
Tue 11:05:50 PM 50.1670 8.4120 158° South 290 334 9,800 -900 Descending FlightAware ADS-B
Tue 11:06:20 PM 50.1310 8.4350 166° South 284 327 9,300 -1,050 Descending FlightAware ADS-B
Tue 11:06:30 PM 50.1180 8.4400 194° South 275 316 9,100 -600 Descending FlightAware ADS-B
Tue 11:06:50 PM 50.0940 8.4310 223° Southwest 256 295 9,000 -200 Descending FlightAware ADS-B
Tue 11:07:00 PM 50.0850 8.4180 245° Southwest 250 288 9,000  Level FlightAware ADS-B
Tue 11:07:20 PM 50.0750 8.3850 248° West 248 285 9,000  Level FlightAware ADS-B
Tue 11:08:00 PM 50.0590 8.3220 251° West 249 287 9,000  Level FlightAware ADS-B
Tue 11:08:30 PM 50.0470 8.2680 259° West 248 285 9,000  Level FlightAware ADS-B
Tue 11:09:40 PM 50.0330 8.1530 260° West 248 285 9,000 -164 Level FlightAware ADS-B
Tue 11:10:20 PM 50.0240 8.0770 238° Southwest 249 287 8,700 -857 Descending FlightAware ADS-B
Tue 11:10:50 PM 50.0070 8.0340 216° Southwest 258 297 8,000 -1,200 Descending FlightAware ADS-B
Tue 11:11:30 PM 49.9670 7.9880 170° South 263 303 7,300 -1,029 Descending FlightAware ADS-B
Tue 11:12:00 PM 49.9320 7.9980 127° Southeast 263 303 6,800 -960 Descending FlightAware ADS-B
Tue 11:12:20 PM 49.9180 8.0270 95° East 265 305 6,500 -1,200 Descending FlightAware ADS-B
Tue 11:12:40 PM 49.9160 8.0660 80° East 268 308 6,000 -1,600 Descending FlightAware ADS-B
Tue 11:12:50 PM 49.9180 8.0840 68° East 264 304 5,700 -1,800 Descending FlightAware ADS-B
Tue 11:13:20 PM 49.9310 8.1350 68° East 248 285 4,800 -1,400 Descending FlightAware ADS-B
Tue 11:13:50 PM 49.9430 8.1820 69° East 225 259 4,300 -900 Descending FlightAware ADS-B
Tue 11:14:20 PM 49.9540 8.2270 70° East 223 257 3,900 -600 Descending FlightAware ADS-B
Tue 11:15:00 PM 49.9670 8.2820 70° East 201 231 3,600 -857 Descending FlightAware ADS-B
Tue 11:15:30 PM 49.9770 8.3250 68° East 200 230 2,900 -1,200 Descending FlightAware ADS-B
Tue 11:15:50 PM 49.9830 8.3480 70° East 189 217 2,600 -840 Descending FlightAware ADS-B
Tue 11:16:20 PM 49.9920 8.3870 68° East 173 199 2,200 -960 Descending FlightAware ADS-B
Tue 11:16:40 PM 49.9980 8.4100 69° East 165 190 1,800 -900 Descending FlightAware ADS-B
Tue 11:17:20 PM 50.0080 8.4510 70° East 142 163 1,300 -429 Descending FlightAware ADS-B
Tue 11:19:00 PM 50.0170 8.4900 75° East 138 159 800 -300 Descending FlightAware ADS-B
Tue 11:27:00 PM 50.2763 10.0139 269° West  Level Estimated
Tue 11:28:00 PM 50.2253 7.3934 104° East  Level FlightAware Approximate
Tue 11:29:00 PM 50.1938 7.5845 106° East  Level FlightAware Approximate
Tue 11:30:00 PM 50.1587 7.7731 106° East  Level FlightAware Approximate
Tue 11:31:00 PM 50.1239 7.9618 106° East  Level FlightAware Approximate
Tue 11:32:00 PM 50.0888 8.1504 102° East  Level FlightAware Approximate
Tue 11:33:00 PM 50.0638 8.3367 107° East  Level FlightAware Approximate
Tue 11:34:00 PM 50.0273 8.5243 94° East  Level FlightAware Approximate
Tue 11:35:00 PM 50.0182 8.7204 274° West  Level Estimated
Tue 11:36:00 PM 50.0273 8.5243 94° East  Level Estimated
Tue 11:37:00 PM 50.0182 8.7204 274° West  Level Estimated
Tue 11:38:00 PM 50.0273 8.5243 94° East  Level Estimated
Tue 11:39:00 PM 50.0182 8.7204 269° West  Level Estimated
Tue 11:40:00 PM 50.0167 8.5667 303° West  Level FlightAware Approximate
Tue 11:41:00 PM 50.0850 8.4012 123° Southeast  Level Estimated
Tue 11:42:00 PM 50.0167 8.5667 303° West  Level FlightAware Approximate
Tue 11:43:00 PM 50.0850 8.4012 123° Southeast  Level Estimated
Tue 11:44:00 PM 50.0167 8.5667 303° West  Level FlightAware Approximate
Tue 11:45:00 PM 50.0850 8.4012 123° Southeast  Level Estimated
Tue 11:46:00 PM 50.0167 8.5667 303° West  Level FlightAware Approximate
Tue 11:47:00 PM 50.0850 8.4012 123° Southeast  Level Estimated
Tue 11:48:00 PM 50.0167 8.5667 303° West  Level FlightAware Approximate
Tue 11:49:00 PM 50.0850 8.4012 123° Southeast  Level Estimated
Tue 11:50:00 PM 50.0167 8.5667 303° West  Level FlightAware Approximate
Tue 11:51:00 PM 50.0850 8.4012 123° Southeast  Level Estimated
Tue 11:52:00 PM 50.0167 8.5667 303° West  Level FlightAware Approximate
Tue 11:53:00 PM 50.0850 8.4012 123° Southeast  Level Estimated
Tue 11:54:00 PM 50.0167 8.5667 303° West  Level FlightAware Approximate
Tue 11:55:00 PM 50.0850 8.4012 123° Southeast  Level Estimated
Tue 11:56:00 PM 50.0167 8.5667 123° Southeast  Level FlightAware Approximate

Login

Don't have an account? Register now (free) for customized features, flight alerts, and more!